Arctic Village, Alaska
Current Conditions -  °F | °C
As of 10:16 AM on Tuesday 21 Oct 2014 (Local Time) from PARC Reporting Station
Broken Clouds Broken Clouds  
Wind Chill: 18°   Ceiling: 2500
Heat Index: 25°   Visibility: 8mi
Dew Point: 19°   Wind: 6mph
Humidity: 80%   Direction: 20°NNE
Pressure: 29.52"   Gusts: NA
Location:  68.13°N, 145.54°W
Report Text: PARC 211816Z AUTO 02005KT 8SM BKN025 BKN032 M04/M07 A2952 RMK AO1
Loading
Personal Weather Stations






























Interactive Weather Map New forecast layout! Learn more

10-Day Weather Forecast

Advertisements
Track Severe Weather on mobile